createdAt,value
2022-10-25T00:01:23.965Z,16.49
2022-10-25T00:03:55.246Z,16.42
2022-10-25T00:06:24.086Z,16.33
2022-10-25T00:08:52.753Z,16.38
2022-10-25T00:11:23.288Z,16.33
2022-10-25T00:13:52.554Z,16.36
2022-10-25T00:16:23.387Z,16.49
2022-10-25T00:18:54.090Z,16.32
2022-10-25T00:21:22.643Z,16.23
2022-10-25T00:23:51.794Z,16.48
2022-10-25T00:26:21.192Z,16.31
2022-10-25T00:28:49.674Z,16.37
2022-10-25T00:31:18.908Z,16.39
2022-10-25T00:33:47.641Z,16.36
2022-10-25T00:36:19.437Z,16.28
2022-10-25T00:38:48.024Z,16.15
2022-10-25T00:41:18.380Z,16.12
2022-10-25T00:43:49.065Z,16.13
2022-10-25T00:46:23.469Z,16.19
2022-10-25T00:48:58.425Z,16.12
2022-10-25T00:51:34.676Z,15.93
2022-10-25T00:54:03.757Z,16.03
2022-10-25T00:56:36.613Z,15.90
2022-10-25T00:59:08.993Z,16.13
2022-10-25T01:01:38.341Z,16.08
2022-10-25T01:04:10.322Z,16.18
2022-10-25T01:06:42.646Z,16.06
2022-10-25T01:09:15.017Z,16.09
2022-10-25T01:11:43.509Z,16.15
2022-10-25T01:14:16.120Z,16.02
2022-10-25T01:16:55.639Z,16.21
2022-10-25T01:19:46.992Z,16.31
2022-10-25T01:22:24.580Z,16.21
2022-10-25T01:25:05.081Z,16.30
2022-10-25T01:28:03.516Z,16.10
2022-10-25T01:31:03.145Z,16.14
2022-10-25T01:33:38.717Z,16.09
2022-10-25T01:36:15.692Z,16.12
2022-10-25T01:38:50.469Z,16.09
2022-10-25T01:41:26.248Z,16.12
2022-10-25T01:44:07.891Z,16.13
2022-10-25T01:46:45.639Z,16.24
2022-10-25T01:49:19.679Z,16.15
2022-10-25T01:51:48.093Z,16.08
2022-10-25T01:54:22.968Z,16.17
2022-10-25T01:57:05.205Z,16.29
2022-10-25T02:00:03.555Z,16.13
2022-10-25T02:02:54.408Z,16.21
2022-10-25T02:05:30.400Z,16.08
2022-10-25T02:08:05.178Z,16.12
2022-10-25T02:10:41.382Z,16.20
2022-10-25T02:13:19.151Z,16.41
2022-10-25T02:15:57.570Z,16.50
2022-10-25T02:21:02.837Z,16.19
2022-10-25T02:23:33.456Z,16.11
2022-10-25T02:26:03.299Z,16.04
2022-10-25T02:28:33.661Z,15.89
2022-10-25T02:31:02.921Z,16.08
2022-10-25T02:33:31.365Z,16.15
2022-10-25T02:36:15.420Z,16.21
2022-10-25T02:38:45.730Z,16.15
2022-10-25T02:41:14.234Z,16.06
2022-10-25T02:43:42.673Z,16.05
2022-10-25T02:46:13.565Z,16.09
2022-10-25T02:48:42.632Z,16.08
2022-10-25T02:51:13.889Z,16.08
2022-10-25T02:53:42.850Z,16.14
2022-10-25T02:56:13.411Z,16.19
2022-10-25T02:58:43.181Z,16.04
2022-10-25T03:01:13.103Z,16.13
2022-10-25T03:03:41.732Z,16.03
2022-10-25T03:06:12.708Z,16.08
2022-10-25T03:08:42.373Z,16.06
2022-10-25T03:11:15.469Z,16.13
2022-10-25T03:13:44.423Z,16.10
2022-10-25T03:16:12.838Z,16.12
2022-10-25T03:18:41.465Z,15.97
2022-10-25T03:21:10.046Z,15.93
2022-10-25T03:23:40.136Z,16.07
2022-10-25T03:26:08.704Z,16.11
2022-10-25T03:28:37.440Z,16.26
2022-10-25T03:31:13.335Z,16.25
2022-10-25T03:33:42.460Z,16.25
2022-10-25T03:36:11.471Z,16.38
2022-10-25T03:38:41.329Z,16.31
2022-10-25T03:41:10.163Z,16.23
2022-10-25T03:43:38.622Z,16.27
2022-10-25T03:46:07.407Z,16.32
2022-10-25T03:48:35.916Z,16.39
2022-10-25T03:51:04.357Z,16.33
2022-10-25T03:53:33.601Z,16.17
2022-10-25T03:56:03.425Z,16.13
2022-10-25T03:58:31.845Z,16.03
2022-10-25T04:01:01.186Z,16.09
2022-10-25T04:03:29.742Z,16.12
2022-10-25T04:05:58.152Z,16.22
2022-10-25T04:08:27.045Z,16.24
2022-10-25T04:10:55.452Z,16.10
2022-10-25T04:13:25.303Z,16.01
2022-10-25T04:15:53.723Z,16.10
2022-10-25T04:18:22.157Z,16.06
2022-10-25T04:20:50.641Z,16.07
2022-10-25T04:23:19.237Z,16.05
2022-10-25T04:25:47.636Z,16.06
2022-10-25T04:28:16.055Z,16.00
2022-10-25T04:30:45.882Z,16.14
2022-10-25T04:33:14.316Z,16.16
2022-10-25T04:35:42.812Z,16.11
2022-10-25T04:38:12.078Z,16.23
2022-10-25T04:40:40.896Z,16.23
2022-10-25T04:43:09.530Z,16.25
2022-10-25T04:45:38.188Z,16.26
2022-10-25T04:48:08.200Z,16.20
2022-10-25T04:50:36.621Z,16.20
2022-10-25T04:53:05.696Z,16.41
2022-10-25T04:55:34.149Z,16.40
2022-10-25T04:58:02.579Z,16.41
2022-10-25T05:03:42.704Z,16.53
2022-10-25T05:06:12.978Z,16.79
2022-10-25T05:08:42.972Z,16.89
2022-10-25T05:11:12.612Z,16.91
2022-10-25T05:13:42.364Z,16.86
2022-10-25T05:16:17.255Z,16.96
2022-10-25T05:18:47.160Z,16.86
2022-10-25T05:21:16.462Z,17.07
2022-10-25T05:23:45.431Z,17.08
2022-10-25T05:26:15.407Z,17.05
2022-10-25T05:28:45.781Z,17.01
2022-10-25T05:31:16.390Z,17.09
2022-10-25T05:33:47.947Z,17.20
2022-10-25T05:36:16.988Z,17.06
2022-10-25T05:38:45.405Z,17.06
2022-10-25T05:41:15.667Z,16.86
2022-10-25T05:43:45.061Z,16.97
2022-10-25T05:46:15.573Z,16.87
2022-10-25T05:48:48.741Z,16.98
2022-10-25T05:51:32.998Z,16.87
2022-10-25T05:54:03.673Z,16.87
2022-10-25T05:56:33.617Z,16.77
2022-10-25T05:59:04.541Z,16.70
2022-10-25T06:01:33.089Z,16.63
2022-10-25T06:04:01.579Z,16.58
2022-10-25T06:06:31.457Z,16.65
2022-10-25T06:09:01.389Z,16.84
2022-10-25T06:11:31.120Z,17.17
2022-10-25T06:13:59.838Z,17.32
2022-10-25T06:16:28.632Z,17.45
2022-10-25T06:18:57.317Z,17.48
2022-10-25T06:21:27.527Z,17.66
2022-10-25T06:23:57.746Z,17.65
2022-10-25T06:26:27.942Z,17.74
2022-10-25T06:28:58.050Z,17.78
2022-10-25T06:31:26.801Z,17.91
2022-10-25T06:33:55.309Z,17.93
2022-10-25T06:36:26.930Z,17.88
2022-10-25T06:38:55.671Z,17.80
2022-10-25T06:41:27.843Z,17.71
2022-10-25T06:43:56.971Z,17.66
2022-10-25T06:46:27.433Z,17.60
2022-10-25T06:48:57.010Z,17.51
2022-10-25T06:51:26.709Z,17.41
2022-10-25T06:53:56.131Z,17.43
2022-10-25T06:56:26.872Z,17.43
2022-10-25T06:58:55.638Z,17.46
2022-10-25T07:01:25.952Z,17.44
2022-10-25T07:03:55.306Z,17.40
2022-10-25T07:06:25.844Z,17.40
2022-10-25T07:08:56.883Z,17.43
2022-10-25T07:11:28.189Z,17.42
2022-10-25T07:13:58.582Z,17.36
2022-10-25T07:16:28.062Z,17.50
2022-10-25T07:19:00.323Z,17.55
2022-10-25T07:21:29.995Z,17.69
2022-10-25T07:23:58.764Z,17.59
2022-10-25T07:26:31.048Z,17.79
2022-10-25T07:29:01.472Z,17.53
2022-10-25T07:31:31.889Z,17.23
2022-10-25T07:34:02.615Z,17.25
2022-10-25T07:36:31.732Z,17.03
2022-10-25T07:39:00.937Z,16.97
2022-10-25T07:41:30.920Z,17.04
2022-10-25T07:43:59.598Z,17.09
2022-10-25T07:46:28.220Z,17.13
2022-10-25T07:48:56.653Z,17.15
2022-10-25T07:51:25.118Z,17.17
2022-10-25T07:53:54.502Z,17.15
2022-10-25T07:56:23.897Z,17.16
2022-10-25T07:58:54.058Z,17.20
2022-10-25T08:01:24.318Z,17.16
2022-10-25T08:03:53.098Z,17.21
2022-10-25T08:06:22.268Z,17.16
2022-10-25T08:08:50.906Z,17.22
2022-10-25T08:11:19.340Z,17.28
2022-10-25T08:13:50.135Z,17.22
2022-10-25T08:16:19.968Z,17.43
2022-10-25T08:18:48.449Z,17.45
2022-10-25T08:21:16.832Z,17.56
2022-10-25T08:23:45.274Z,17.65
2022-10-25T08:26:13.701Z,17.86
2022-10-25T08:28:42.177Z,17.74
2022-10-25T08:31:10.652Z,17.80
2022-10-25T08:33:40.533Z,17.62
2022-10-25T08:36:09.788Z,17.78
2022-10-25T08:38:38.212Z,17.79
2022-10-25T08:41:12.094Z,17.79
2022-10-25T08:44:10.510Z,17.76
2022-10-25T08:46:42.758Z,17.73
2022-10-25T08:49:20.954Z,17.62
2022-10-25T08:51:51.179Z,17.54
2022-10-25T08:54:24.519Z,17.66
2022-10-25T08:57:14.293Z,17.72
2022-10-25T08:59:46.503Z,17.89
2022-10-25T09:02:20.658Z,18.09
2022-10-25T09:04:50.588Z,17.95
2022-10-25T09:07:42.093Z,17.94
2022-10-25T09:10:24.129Z,18.13
2022-10-25T09:13:01.722Z,18.61
2022-10-25T09:15:44.677Z,18.66
2022-10-25T09:18:17.706Z,18.87
2022-10-25T09:20:51.828Z,19.01
2022-10-25T09:23:29.401Z,18.88
2022-10-25T09:26:04.474Z,18.51
2022-10-25T09:28:50.688Z,18.24
2022-10-25T09:31:23.776Z,18.58
2022-10-25T09:34:00.125Z,18.95
2022-10-25T09:36:38.377Z,19.92
2022-10-25T09:39:16.975Z,20.61
2022-10-25T09:41:50.783Z,20.54
2022-10-25T09:44:30.656Z,20.89
2022-10-25T09:47:05.787Z,21.53
2022-10-25T09:49:42.050Z,21.32
2022-10-25T09:52:21.165Z,21.55
2022-10-25T09:54:55.071Z,23.04
2022-10-25T09:57:23.561Z,23.52
2022-10-25T09:59:53.187Z,22.95
2022-10-25T10:02:25.889Z,22.22
2022-10-25T10:04:55.215Z,20.74
2022-10-25T10:07:30.338Z,20.47
2022-10-25T10:10:01.796Z,20.33
2022-10-25T10:12:35.622Z,20.05
2022-10-25T10:15:09.850Z,19.72
2022-10-25T10:17:38.305Z,19.76
2022-10-25T10:20:12.860Z,19.81
2022-10-25T10:25:26.869Z,19.83
2022-10-25T10:27:58.567Z,19.74
2022-10-25T10:30:29.993Z,19.83
2022-10-25T10:33:01.536Z,19.66
2022-10-25T10:35:33.146Z,20.21
2022-10-25T10:38:26.775Z,20.41
2022-10-25T10:41:13.225Z,20.88
2022-10-25T10:43:42.889Z,21.08
2022-10-25T10:46:16.394Z,22.02
2022-10-25T10:48:46.925Z,22.73
2022-10-25T10:54:33.920Z,24.01
2022-10-25T10:57:04.371Z,24.72
2022-10-25T10:59:37.589Z,25.10
2022-10-25T11:02:25.104Z,24.90
2022-10-25T11:04:55.272Z,24.96
2022-10-25T11:07:34.651Z,23.04
2022-10-25T11:10:25.359Z,22.03
2022-10-25T11:13:12.473Z,21.32
2022-10-25T11:16:12.133Z,21.25
2022-10-25T11:18:52.049Z,21.26
2022-10-25T11:21:36.865Z,21.00
2022-10-25T11:24:16.275Z,20.98
2022-10-25T11:26:57.494Z,21.24
2022-10-25T11:29:41.744Z,20.98
2022-10-25T11:32:30.225Z,20.68
2022-10-25T11:35:06.346Z,20.57
2022-10-25T11:37:41.402Z,20.96
2022-10-25T11:40:17.621Z,20.92
2022-10-25T11:43:11.916Z,20.67
2022-10-25T11:45:43.239Z,20.67
2022-10-25T11:48:39.702Z,20.42
2022-10-25T11:51:18.694Z,20.29
2022-10-25T11:54:06.816Z,20.70
2022-10-25T11:56:42.089Z,20.85
2022-10-25T11:59:19.956Z,21.20
2022-10-25T12:02:04.929Z,21.03
2022-10-25T12:04:48.150Z,21.00
2022-10-25T12:07:22.118Z,21.52
2022-10-25T12:10:00.464Z,22.50
2022-10-25T12:12:39.517Z,24.22
2022-10-25T12:15:17.835Z,26.09
2022-10-25T12:17:46.333Z,24.71
2022-10-25T12:20:23.594Z,25.04
2022-10-25T12:22:55.698Z,25.55
2022-10-25T12:25:27.738Z,24.49
2022-10-25T12:28:04.681Z,24.58
2022-10-25T12:30:36.903Z,24.98
2022-10-25T12:33:15.917Z,26.12
2022-10-25T12:35:49.522Z,24.95
2022-10-25T12:38:28.288Z,24.20
2022-10-25T12:41:02.023Z,23.92
2022-10-25T12:43:36.264Z,23.34
2022-10-25T12:46:36.797Z,24.08
2022-10-25T12:49:20.734Z,23.43
2022-10-25T12:52:04.544Z,23.19
2022-10-25T12:55:04.468Z,23.35
2022-10-25T12:57:47.620Z,23.75
2022-10-25T13:00:18.574Z,23.93
2022-10-25T13:03:24.582Z,23.47
2022-10-25T13:06:15.424Z,23.24
2022-10-25T13:08:45.162Z,22.65
2022-10-25T13:11:13.890Z,22.74
2022-10-25T13:13:50.765Z,22.27
2022-10-25T13:16:27.440Z,22.27
2022-10-25T13:19:49.454Z,22.67
2022-10-25T13:22:35.749Z,22.79
2022-10-25T13:25:17.407Z,22.94
2022-10-25T13:28:18.734Z,22.75
2022-10-25T13:30:47.344Z,22.62
2022-10-25T13:33:33.432Z,22.68
2022-10-25T13:36:06.040Z,22.90
2022-10-25T13:38:39.627Z,22.97
2022-10-25T13:41:20.329Z,22.72
2022-10-25T13:44:01.430Z,22.22
2022-10-25T13:46:39.001Z,22.57
2022-10-25T13:49:34.066Z,22.66
2022-10-25T13:52:07.512Z,22.32
2022-10-25T13:54:48.330Z,22.71
2022-10-25T13:57:48.077Z,22.94
2022-10-25T14:00:41.299Z,23.20
2022-10-25T14:03:36.174Z,23.12
2022-10-25T14:06:18.237Z,23.07
2022-10-25T14:08:54.706Z,23.12
2022-10-25T14:11:28.153Z,23.17
2022-10-25T14:14:01.327Z,22.72
2022-10-25T14:16:33.169Z,22.68
2022-10-25T14:19:07.892Z,22.58
2022-10-25T14:21:36.471Z,22.44
2022-10-25T14:24:15.145Z,22.63
2022-10-25T14:26:52.090Z,22.62
2022-10-25T14:29:23.019Z,22.44
2022-10-25T14:31:51.984Z,22.37
2022-10-25T14:34:22.802Z,22.38
2022-10-25T14:36:52.866Z,22.26
2022-10-25T14:39:25.006Z,22.26
2022-10-25T14:41:56.245Z,22.34
2022-10-25T14:44:28.119Z,22.71
2022-10-25T14:46:57.149Z,22.36
2022-10-25T14:49:26.282Z,22.35
2022-10-25T14:51:57.309Z,21.92
2022-10-25T14:54:33.600Z,21.82
2022-10-25T14:57:04.446Z,21.95
2022-10-25T14:59:42.714Z,21.90
2022-10-25T15:02:17.389Z,21.68
2022-10-25T15:04:52.395Z,21.56
2022-10-25T15:07:23.845Z,21.75
2022-10-25T15:09:55.770Z,21.70
2022-10-25T15:14:54.689Z,21.51
2022-10-25T15:17:28.517Z,21.61
2022-10-25T15:20:06.218Z,21.79
2022-10-25T15:22:44.495Z,21.94
2022-10-25T15:25:30.150Z,21.97
2022-10-25T15:28:09.994Z,21.86
2022-10-25T15:30:40.743Z,21.67
2022-10-25T15:33:13.044Z,21.59
2022-10-25T15:35:48.446Z,21.63
2022-10-25T15:38:17.596Z,21.63
2022-10-25T15:40:48.372Z,21.41
2022-10-25T15:43:16.871Z,21.41
2022-10-25T15:45:46.132Z,21.50
2022-10-25T15:48:17.617Z,21.63
2022-10-25T15:50:48.719Z,21.49
2022-10-25T15:53:17.300Z,21.32
2022-10-25T15:55:48.537Z,21.35
2022-10-25T15:58:17.409Z,21.38
2022-10-25T16:00:47.752Z,21.37
2022-10-25T16:03:22.151Z,21.31
2022-10-25T16:05:51.804Z,21.46
2022-10-25T16:08:20.343Z,21.70
2022-10-25T16:10:50.245Z,21.81
2022-10-25T16:13:25.854Z,21.60
2022-10-25T16:15:55.449Z,21.63
2022-10-25T16:20:59.513Z,21.48
2022-10-25T16:23:28.407Z,21.49
2022-10-25T16:25:59.220Z,21.53
2022-10-25T16:28:27.647Z,21.49
2022-10-25T16:30:56.042Z,21.41
2022-10-25T16:33:24.518Z,21.69
2022-10-25T16:35:52.967Z,21.66
2022-10-25T16:38:21.396Z,21.59
2022-10-25T16:40:50.120Z,21.49
2022-10-25T16:43:19.936Z,21.34
2022-10-25T16:45:48.522Z,21.33
2022-10-25T16:48:30.846Z,20.80
2022-10-25T16:50:59.622Z,21.34
2022-10-25T16:53:28.451Z,21.28
2022-10-25T16:55:59.555Z,21.16
2022-10-25T16:58:29.365Z,21.17
2022-10-25T17:01:02.797Z,21.05
2022-10-25T17:03:31.478Z,20.99
2022-10-25T17:06:00.494Z,21.01
2022-10-25T17:08:33.168Z,21.00
2022-10-25T17:11:01.677Z,20.81
2022-10-25T17:13:31.622Z,20.83
2022-10-25T17:16:00.086Z,20.80
2022-10-25T17:18:28.514Z,20.79
2022-10-25T17:20:57.040Z,20.71
2022-10-25T17:23:25.469Z,20.62
2022-10-25T17:25:59.072Z,20.60
2022-10-25T17:28:27.530Z,20.42
2022-10-25T17:30:57.543Z,20.09
2022-10-25T17:33:26.230Z,20.08
2022-10-25T17:35:54.694Z,20.05
2022-10-25T17:38:23.174Z,19.94
2022-10-25T17:40:51.633Z,19.98
2022-10-25T17:43:20.073Z,19.91
2022-10-25T17:45:48.656Z,19.88
2022-10-25T17:48:18.507Z,19.91
2022-10-25T17:50:46.939Z,19.88
2022-10-25T17:53:15.338Z,19.81
2022-10-25T17:55:43.794Z,19.83
2022-10-25T17:58:12.563Z,19.88
2022-10-25T18:00:40.997Z,19.91
2022-10-25T18:03:09.459Z,19.85
2022-10-25T18:05:39.813Z,19.89
2022-10-25T18:08:08.285Z,19.78
2022-10-25T18:10:37.358Z,19.80
2022-10-25T18:13:05.795Z,19.77
2022-10-25T18:15:35.826Z,19.78
2022-10-25T18:18:04.498Z,19.66
2022-10-25T18:20:33.385Z,19.66
2022-10-25T18:23:03.201Z,19.77
2022-10-25T18:25:31.676Z,19.74
2022-10-25T18:28:00.267Z,19.77
2022-10-25T18:30:28.918Z,19.75
2022-10-25T18:32:57.415Z,19.72
2022-10-25T18:35:25.894Z,19.74
2022-10-25T18:37:54.434Z,19.80
2022-10-25T18:40:24.468Z,19.72
2022-10-25T18:43:16.314Z,19.88
2022-10-25T18:45:45.116Z,19.75
2022-10-25T18:48:13.816Z,19.75
2022-10-25T18:50:42.709Z,19.77
2022-10-25T18:53:11.240Z,19.61
2022-10-25T18:55:45.883Z,19.77
2022-10-25T18:58:15.258Z,19.73
2022-10-25T19:00:44.570Z,19.68
2022-10-25T19:03:14.016Z,19.61
2022-10-25T19:05:43.421Z,19.63
2022-10-25T19:08:13.319Z,19.68
2022-10-25T19:10:43.755Z,19.69
2022-10-25T19:13:19.002Z,19.61
2022-10-25T19:15:50.269Z,19.68
2022-10-25T19:18:25.382Z,19.14
2022-10-25T19:20:54.716Z,19.65
2022-10-25T19:23:23.560Z,19.67
2022-10-25T19:25:53.550Z,19.68
2022-10-25T19:28:22.008Z,19.61
2022-10-25T19:30:50.978Z,19.62
2022-10-25T19:33:19.508Z,19.61
2022-10-25T19:35:47.937Z,19.60
2022-10-25T19:38:17.001Z,19.57
2022-10-25T19:40:46.531Z,19.47
2022-10-25T19:43:16.698Z,19.63
2022-10-25T19:45:45.142Z,19.49
2022-10-25T19:48:13.574Z,19.53
2022-10-25T19:50:42.406Z,19.56
2022-10-25T19:53:10.941Z,19.56
2022-10-25T19:55:39.406Z,19.53
2022-10-25T19:58:07.910Z,19.53
2022-10-25T20:00:38.224Z,19.61
2022-10-25T20:03:06.711Z,19.54
2022-10-25T20:05:35.145Z,19.53
2022-10-25T20:08:05.357Z,19.55
2022-10-25T20:10:33.994Z,19.63
2022-10-25T20:13:04.782Z,19.51
2022-10-25T20:15:33.642Z,19.52
2022-10-25T20:18:03.477Z,19.60
2022-10-25T20:20:31.855Z,19.59
2022-10-25T20:23:00.237Z,19.69
2022-10-25T20:25:28.795Z,19.66
2022-10-25T20:27:57.458Z,19.50
2022-10-25T20:30:25.948Z,19.62
2022-10-25T20:32:54.392Z,19.58
2022-10-25T20:35:26.300Z,19.61
2022-10-25T20:37:56.040Z,19.56
2022-10-25T20:40:27.448Z,19.48
2022-10-25T20:42:57.837Z,19.49
2022-10-25T20:45:26.724Z,19.45
2022-10-25T20:47:55.825Z,19.43
2022-10-25T20:50:27.404Z,19.47
2022-10-25T20:53:09.718Z,19.51
2022-10-25T20:55:38.519Z,19.49
2022-10-25T20:58:07.241Z,19.51
2022-10-25T21:00:37.849Z,19.32
2022-10-25T21:03:09.018Z,19.58
2022-10-25T21:05:43.162Z,19.53
2022-10-25T21:08:11.761Z,19.49
2022-10-25T21:10:40.585Z,19.44
2022-10-25T21:13:09.506Z,19.47
2022-10-25T21:15:39.158Z,19.43
2022-10-25T21:18:07.582Z,19.43
2022-10-25T21:20:40.602Z,19.34
2022-10-25T21:23:09.059Z,19.39
2022-10-25T21:25:37.822Z,19.37
2022-10-25T21:28:06.842Z,19.38
2022-10-25T21:30:35.277Z,19.39
2022-10-25T21:33:04.816Z,19.31
2022-10-25T21:35:33.694Z,19.35
2022-10-25T21:38:03.551Z,19.42
2022-10-25T21:40:32.007Z,19.45
2022-10-25T21:43:00.441Z,19.45
2022-10-25T21:45:28.867Z,19.44
2022-10-25T21:47:57.341Z,19.36
2022-10-25T21:50:25.790Z,18.94
2022-10-25T21:52:57.449Z,19.42
2022-10-25T21:55:27.355Z,19.42
2022-10-25T21:57:57.845Z,19.37
2022-10-25T22:00:26.957Z,19.30
2022-10-25T22:02:55.850Z,19.25
2022-10-25T22:05:24.528Z,19.24
2022-10-25T22:07:52.982Z,19.17
2022-10-25T22:10:23.778Z,19.19
2022-10-25T22:12:56.171Z,19.10
2022-10-25T22:15:24.610Z,19.09
2022-10-25T22:17:53.049Z,19.07
2022-10-25T22:20:21.996Z,18.98
2022-10-25T22:23:01.886Z,18.87
2022-10-25T22:25:30.349Z,18.91
2022-10-25T22:28:00.392Z,18.97
2022-10-25T22:30:28.914Z,18.97
2022-10-25T22:32:58.827Z,18.98
2022-10-25T22:35:27.294Z,19.03
2022-10-25T22:37:56.095Z,19.01
2022-10-25T22:40:24.877Z,19.02
2022-10-25T22:42:57.247Z,19.14
2022-10-25T22:45:27.254Z,19.12
2022-10-25T22:47:55.954Z,19.12
2022-10-25T22:50:24.385Z,19.11
2022-10-25T22:52:52.839Z,19.13
2022-10-25T22:55:21.255Z,19.04
2022-10-25T22:57:49.994Z,19.10
2022-10-25T23:00:19.009Z,19.07
2022-10-25T23:02:49.320Z,19.10
2022-10-25T23:05:18.651Z,19.07
2022-10-25T23:07:47.118Z,19.18
2022-10-25T23:10:15.694Z,19.23
2022-10-25T23:12:48.594Z,19.34
2022-10-25T23:15:17.243Z,19.24
2022-10-25T23:20:20.737Z,19.18
2022-10-25T23:22:49.456Z,19.18
2022-10-25T23:25:18.110Z,19.12
2022-10-25T23:27:46.993Z,19.13
2022-10-25T23:30:15.813Z,19.14
2022-10-25T23:32:44.239Z,19.14
2022-10-25T23:35:12.695Z,19.18
2022-10-25T23:37:42.473Z,19.21
2022-10-25T23:40:12.130Z,19.31
2022-10-25T23:42:40.670Z,19.24
2022-10-25T23:45:10.412Z,19.32
2022-10-25T23:47:41.184Z,19.27
2022-10-25T23:50:10.774Z,19.24
2022-10-25T23:52:39.166Z,19.23
2022-10-25T23:55:09.998Z,19.24
2022-10-25T23:57:38.808Z,19.24
